sensor_id;sensor_type;location;lat;lon;timestamp;temperature;humidity
1678;DHT22;6034;46.864;15.216;2024-03-22T05:29:45;10.70;92.20
1678;DHT22;6034;46.864;15.216;2024-03-22T05:32:15;10.70;92.80
1678;DHT22;6034;46.864;15.216;2024-03-22T05:34:43;10.70;92.90
1678;DHT22;6034;46.864;15.216;2024-03-22T05:37:11;10.70;92.40
1678;DHT22;6034;46.864;15.216;2024-03-22T05:39:38;10.70;92.20
1678;DHT22;6034;46.864;15.216;2024-03-22T05:42:07;10.60;92.60
1678;DHT22;6034;46.864;15.216;2024-03-22T05:44:37;10.60;92.70
1678;DHT22;6034;46.864;15.216;2024-03-22T05:47:06;10.70;92.40
1678;DHT22;6034;46.864;15.216;2024-03-22T05:49:32;10.80;92.20
1678;DHT22;6034;46.864;15.216;2024-03-22T05:51:59;10.80;92.50
1678;DHT22;6034;46.864;15.216;2024-03-22T05:54:26;10.90;92.90
1678;DHT22;6034;46.864;15.216;2024-03-22T05:56:53;10.90;93.30
1678;DHT22;6034;46.864;15.216;2024-03-22T05:59:20;10.90;92.70
1678;DHT22;6034;46.864;15.216;2024-03-22T06:01:47;10.90;92.80
1678;DHT22;6034;46.864;15.216;2024-03-22T06:04:15;10.90;92.70
1678;DHT22;6034;46.864;15.216;2024-03-22T06:09:09;10.90;92.50
1678;DHT22;6034;46.864;15.216;2024-03-22T06:11:39;10.90;93.20
1678;DHT22;6034;46.864;15.216;2024-03-22T06:14:10;11.10;94.20
1678;DHT22;6034;46.864;15.216;2024-03-22T06:16:37;11.20;92.70
1678;DHT22;6034;46.864;15.216;2024-03-22T06:19:04;11.30;93.10
1678;DHT22;6034;46.864;15.216;2024-03-22T06:21:32;11.40;93.80
1678;DHT22;6034;46.864;15.216;2024-03-22T06:23:58;11.50;93.60
1678;DHT22;6034;46.864;15.216;2024-03-22T06:26:26;11.70;95.10
1678;DHT22;6034;46.864;15.216;2024-03-22T06:28:52;11.70;94.60
1678;DHT22;6034;46.864;15.216;2024-03-22T06:31:20;11.70;94.00
1678;DHT22;6034;46.864;15.216;2024-03-22T06:33:46;11.70;95.90
1678;DHT22;6034;46.864;15.216;2024-03-22T06:36:14;11.90;96.70
1678;DHT22;6034;46.864;15.216;2024-03-22T06:38:43;11.80;93.70
1678;DHT22;6034;46.864;15.216;2024-03-22T06:41:10;11.90;94.40
1678;DHT22;6034;46.864;15.216;2024-03-22T06:43:36;11.80;92.50
1678;DHT22;6034;46.864;15.216;2024-03-22T06:46:04;11.80;94.30
1678;DHT22;6034;46.864;15.216;2024-03-22T06:48:30;11.80;94.30
1678;DHT22;6034;46.864;15.216;2024-03-22T06:50:57;11.70;94.40
1678;DHT22;6034;46.864;15.216;2024-03-22T06:53:24;11.90;95.30
1678;DHT22;6034;46.864;15.216;2024-03-22T06:55:52;11.90;93.30
1678;DHT22;6034;46.864;15.216;2024-03-22T06:58:18;12.00;91.80
1678;DHT22;6034;46.864;15.216;2024-03-22T07:00:46;12.00;92.50
1678;DHT22;6034;46.864;15.216;2024-03-22T07:03:12;12.20;94.70
1678;DHT22;6034;46.864;15.216;2024-03-22T07:05:40;12.20;94.30
1678;DHT22;6034;46.864;15.216;2024-03-22T07:08:06;12.40;95.40
1678;DHT22;6034;46.864;15.216;2024-03-22T07:10:34;12.40;95.40
1678;DHT22;6034;46.864;15.216;2024-03-22T07:13:02;12.40;95.80
1678;DHT22;6034;46.864;15.216;2024-03-22T07:15:29;12.30;96.10
1678;DHT22;6034;46.864;15.216;2024-03-22T07:17:57;12.30;96.30
1678;DHT22;6034;46.864;15.216;2024-03-22T07:20:25;12.40;95.80
1678;DHT22;6034;46.864;15.216;2024-03-22T07:22:52;12.60;96.60
1678;DHT22;6034;46.864;15.216;2024-03-22T07:25:20;12.80;95.60
1678;DHT22;6034;46.864;15.216;2024-03-22T07:27:47;12.70;96.00
1678;DHT22;6034;46.864;15.216;2024-03-22T07:30:16;12.70;93.60
1678;DHT22;6034;46.864;15.216;2024-03-22T07:32:42;12.70;93.80
1678;DHT22;6034;46.864;15.216;2024-03-22T07:35:10;13.00;94.40
1678;DHT22;6034;46.864;15.216;2024-03-22T07:37:36;13.00;94.20
1678;DHT22;6034;46.864;15.216;2024-03-22T07:40:04;13.10;92.50
1678;DHT22;6034;46.864;15.216;2024-03-22T07:42:31;13.20;93.20
1678;DHT22;6034;46.864;15.216;2024-03-22T07:44:58;13.40;93.20
1678;DHT22;6034;46.864;15.216;2024-03-22T07:47:26;13.50;94.40
1678;DHT22;6034;46.864;15.216;2024-03-22T07:49:54;13.50;93.50
1678;DHT22;6034;46.864;15.216;2024-03-22T07:52:20;13.60;93.40
1678;DHT22;6034;46.864;15.216;2024-03-22T07:54:48;13.70;93.10
1678;DHT22;6034;46.864;15.216;2024-03-22T07:57:14;13.90;93.00
1678;DHT22;6034;46.864;15.216;2024-03-22T07:59:41;13.80;92.40
1678;DHT22;6034;46.864;15.216;2024-03-22T08:02:11;13.90;93.10
1678;DHT22;6034;46.864;15.216;2024-03-22T08:04:42;13.90;93.10
1678;DHT22;6034;46.864;15.216;2024-03-22T08:07:09;13.90;92.50
1678;DHT22;6034;46.864;15.216;2024-03-22T08:09:37;14.10;91.80
1678;DHT22;6034;46.864;15.216;2024-03-22T08:12:04;14.30;92.50
1678;DHT22;6034;46.864;15.216;2024-03-22T08:14:32;14.50;91.80
1678;DHT22;6034;46.864;15.216;2024-03-22T08:16:58;14.60;92.50
1678;DHT22;6034;46.864;15.216;2024-03-22T08:19:25;14.90;93.30
1678;DHT22;6034;46.864;15.216;2024-03-22T08:21:54;14.90;93.80
1678;DHT22;6034;46.864;15.216;2024-03-22T08:24:22;14.30;92.50
1678;DHT22;6034;46.864;15.216;2024-03-22T08:26:48;14.50;93.00
1678;DHT22;6034;46.864;15.216;2024-03-22T08:29:15;14.90;93.60
1678;DHT22;6034;46.864;15.216;2024-03-22T08:31:42;14.90;93.30
1678;DHT22;6034;46.864;15.216;2024-03-22T08:34:09;15.00;91.90
1678;DHT22;6034;46.864;15.216;2024-03-22T08:36:36;15.20;93.20
1678;DHT22;6034;46.864;15.216;2024-03-22T08:39:04;15.40;92.70
1678;DHT22;6034;46.864;15.216;2024-03-22T08:41:33;15.50;92.80
1678;DHT22;6034;46.864;15.216;2024-03-22T08:44:00;15.60;93.40
1678;DHT22;6034;46.864;15.216;2024-03-22T08:46:26;15.70;90.70
1678;DHT22;6034;46.864;15.216;2024-03-22T08:48:54;15.90;90.80
1678;DHT22;6034;46.864;15.216;2024-03-22T08:51:21;15.90;91.10
1678;DHT22;6034;46.864;15.216;2024-03-22T08:53:48;16.10;92.00
1678;DHT22;6034;46.864;15.216;2024-03-22T08:56:16;16.00;89.60
1678;DHT22;6034;46.864;15.216;2024-03-22T08:58:43;16.10;91.50
1678;DHT22;6034;46.864;15.216;2024-03-22T09:01:10;16.10;89.70
1678;DHT22;6034;46.864;15.216;2024-03-22T09:03:37;16.30;88.40
1678;DHT22;6034;46.864;15.216;2024-03-22T09:06:05;16.30;88.40
1678;DHT22;6034;46.864;15.216;2024-03-22T09:08:32;16.00;83.60
1678;DHT22;6034;46.864;15.216;2024-03-22T09:10:59;16.00;84.90
1678;DHT22;6034;46.864;15.216;2024-03-22T09:13:29;16.10;88.50
1678;DHT22;6034;46.864;15.216;2024-03-22T09:15:58;16.30;90.70
1678;DHT22;6034;46.864;15.216;2024-03-22T09:18:26;16.40;88.90
1678;DHT22;6034;46.864;15.216;2024-03-22T09:20:52;16.30;89.10
1678;DHT22;6034;46.864;15.216;2024-03-22T09:23:20;16.00;87.80
1678;DHT22;6034;46.864;15.216;2024-03-22T09:25:46;15.70;88.00
1678;DHT22;6034;46.864;15.216;2024-03-22T09:28:14;16.00;90.70
1678;DHT22;6034;46.864;15.216;2024-03-22T09:30:42;16.30;89.40
1678;DHT22;6034;46.864;15.216;2024-03-22T09:33:11;16.30;90.30
1678;DHT22;6034;46.864;15.216;2024-03-22T09:35:38;16.50;90.30
1678;DHT22;6034;46.864;15.216;2024-03-22T09:38:05;16.70;90.30
1678;DHT22;6034;46.864;15.216;2024-03-22T09:40:32;16.90;90.50
1678;DHT22;6034;46.864;15.216;2024-03-22T09:43:02;17.00;88.10
1678;DHT22;6034;46.864;15.216;2024-03-22T09:45:29;17.20;88.10
1678;DHT22;6034;46.864;15.216;2024-03-22T09:47:58;17.30;87.70
1678;DHT22;6034;46.864;15.216;2024-03-22T09:50:25;17.20;85.70
1678;DHT22;6034;46.864;15.216;2024-03-22T09:52:53;17.50;88.00
1678;DHT22;6034;46.864;15.216;2024-03-22T09:55:22;17.60;87.30
1678;DHT22;6034;46.864;15.216;2024-03-22T09:57:50;17.70;89.00
1678;DHT22;6034;46.864;15.216;2024-03-22T10:00:18;17.80;88.90
1678;DHT22;6034;46.864;15.216;2024-03-22T10:02:48;17.60;86.30
1678;DHT22;6034;46.864;15.216;2024-03-22T10:05:16;17.40;85.50
1678;DHT22;6034;46.864;15.216;2024-03-22T10:07:44;17.20;80.60
1678;DHT22;6034;46.864;15.216;2024-03-22T10:10:10;17.20;83.20
1678;DHT22;6034;46.864;15.216;2024-03-22T10:12:38;17.50;85.80
1678;DHT22;6034;46.864;15.216;2024-03-22T10:15:06;17.70;83.50
1678;DHT22;6034;46.864;15.216;2024-03-22T10:17:35;17.90;83.30
1678;DHT22;6034;46.864;15.216;2024-03-22T10:20:02;17.90;80.10
1678;DHT22;6034;46.864;15.216;2024-03-22T10:22:31;17.60;76.10
1678;DHT22;6034;46.864;15.216;2024-03-22T10:24:58;17.40;76.40
1678;DHT22;6034;46.864;15.216;2024-03-22T10:27:27;17.60;80.70
1678;DHT22;6034;46.864;15.216;2024-03-22T10:29:55;17.70;80.10
1678;DHT22;6034;46.864;15.216;2024-03-22T10:32:23;17.90;81.40
1678;DHT22;6034;46.864;15.216;2024-03-22T10:34:50;17.80;77.80
1678;DHT22;6034;46.864;15.216;2024-03-22T10:37:18;18.00;79.80
1678;DHT22;6034;46.864;15.216;2024-03-22T10:39:46;18.20;78.30
1678;DHT22;6034;46.864;15.216;2024-03-22T10:42:14;18.20;78.00
1678;DHT22;6034;46.864;15.216;2024-03-22T10:44:42;18.30;75.80
1678;DHT22;6034;46.864;15.216;2024-03-22T10:47:10;18.20;74.10
1678;DHT22;6034;46.864;15.216;2024-03-22T10:49:38;18.40;76.60
1678;DHT22;6034;46.864;15.216;2024-03-22T10:52:07;18.50;76.50
1678;DHT22;6034;46.864;15.216;2024-03-22T10:54:39;18.50;77.30
1678;DHT22;6034;46.864;15.216;2024-03-22T10:57:13;18.50;77.00
1678;DHT22;6034;46.864;15.216;2024-03-22T10:59:41;18.50;76.30
1678;DHT22;6034;46.864;15.216;2024-03-22T11:02:11;18.50;76.00
1678;DHT22;6034;46.864;15.216;2024-03-22T11:04:37;18.60;76.80
1678;DHT22;6034;46.864;15.216;2024-03-22T11:07:05;18.40;70.20
1678;DHT22;6034;46.864;15.216;2024-03-22T11:09:31;18.30;68.50
1678;DHT22;6034;46.864;15.216;2024-03-22T11:11:59;17.90;68.40
1678;DHT22;6034;46.864;15.216;2024-03-22T11:14:27;18.20;72.40
1678;DHT22;6034;46.864;15.216;2024-03-22T11:16:54;18.20;71.80
1678;DHT22;6034;46.864;15.216;2024-03-22T11:19:22;18.30;72.10
1678;DHT22;6034;46.864;15.216;2024-03-22T11:21:49;18.40;72.40
1678;DHT22;6034;46.864;15.216;2024-03-22T11:24:16;18.60;71.00
1678;DHT22;6034;46.864;15.216;2024-03-22T11:26:42;18.60;69.90
1678;DHT22;6034;46.864;15.216;2024-03-22T11:29:11;17.90;63.30
1678;DHT22;6034;46.864;15.216;2024-03-22T11:31:39;18.20;68.60
1678;DHT22;6034;46.864;15.216;2024-03-22T11:34:09;18.50;68.00
1678;DHT22;6034;46.864;15.216;2024-03-22T11:36:38;18.80;71.70
1678;DHT22;6034;46.864;15.216;2024-03-22T11:39:05;19.00;68.90
1678;DHT22;6034;46.864;15.216;2024-03-22T11:41:32;19.00;68.90
1678;DHT22;6034;46.864;15.216;2024-03-22T11:44:00;19.00;68.70
1678;DHT22;6034;46.864;15.216;2024-03-22T11:46:28;19.00;65.00
1678;DHT22;6034;46.864;15.216;2024-03-22T11:48:57;19.00;66.50
1678;DHT22;6034;46.864;15.216;2024-03-22T11:51:25;18.70;64.20
1678;DHT22;6034;46.864;15.216;2024-03-22T11:53:53;18.70;67.50
1678;DHT22;6034;46.864;15.216;2024-03-22T11:56:22;18.90;67.90
1678;DHT22;6034;46.864;15.216;2024-03-22T11:58:57;18.90;66.20
1678;DHT22;6034;46.864;15.216;2024-03-22T12:01:23;18.40;63.00
1678;DHT22;6034;46.864;15.216;2024-03-22T12:03:50;18.80;69.40
1678;DHT22;6034;46.864;15.216;2024-03-22T12:06:20;19.10;70.30
1678;DHT22;6034;46.864;15.216;2024-03-22T12:08:48;19.20;66.70
1678;DHT22;6034;46.864;15.216;2024-03-22T12:11:14;19.30;69.10
1678;DHT22;6034;46.864;15.216;2024-03-22T12:13:42;19.30;67.20
1678;DHT22;6034;46.864;15.216;2024-03-22T12:16:08;19.50;68.30
1678;DHT22;6034;46.864;15.216;2024-03-22T12:18:35;19.70;65.30
1678;DHT22;6034;46.864;15.216;2024-03-22T12:21:02;19.70;64.50
1678;DHT22;6034;46.864;15.216;2024-03-22T12:23:31;19.70;65.50
1678;DHT22;6034;46.864;15.216;2024-03-22T12:25:57;19.80;67.80
1678;DHT22;6034;46.864;15.216;2024-03-22T12:28:25;19.50;63.10
1678;DHT22;6034;46.864;15.216;2024-03-22T12:30:51;19.50;63.60
1678;DHT22;6034;46.864;15.216;2024-03-22T12:33:18;19.30;64.60
1678;DHT22;6034;46.864;15.216;2024-03-22T12:35:45;19.40;65.20
1678;DHT22;6034;46.864;15.216;2024-03-22T12:38:14;19.50;65.40
1678;DHT22;6034;46.864;15.216;2024-03-22T12:40:42;19.40;61.90
1678;DHT22;6034;46.864;15.216;2024-03-22T12:43:10;19.40;66.10
1678;DHT22;6034;46.864;15.216;2024-03-22T12:45:38;19.60;66.50
1678;DHT22;6034;46.864;15.216;2024-03-22T12:48:05;19.70;66.50
1678;DHT22;6034;46.864;15.216;2024-03-22T12:50:32;19.70;66.20
1678;DHT22;6034;46.864;15.216;2024-03-22T12:52:59;18.70;58.90
1678;DHT22;6034;46.864;15.216;2024-03-22T12:55:27;19.20;62.80
1678;DHT22;6034;46.864;15.216;2024-03-22T12:57:55;19.00;62.50
1678;DHT22;6034;46.864;15.216;2024-03-22T13:00:23;19.10;64.10
1678;DHT22;6034;46.864;15.216;2024-03-22T13:02:49;19.20;63.00
1678;DHT22;6034;46.864;15.216;2024-03-22T13:05:17;19.30;64.30
1678;DHT22;6034;46.864;15.216;2024-03-22T13:07:44;19.40;65.80
1678;DHT22;6034;46.864;15.216;2024-03-22T13:10:11;19.50;65.30
1678;DHT22;6034;46.864;15.216;2024-03-22T13:12:38;19.30;60.60
1678;DHT22;6034;46.864;15.216;2024-03-22T13:15:07;19.40;64.30
1678;DHT22;6034;46.864;15.216;2024-03-22T13:17:33;19.50;64.20
1678;DHT22;6034;46.864;15.216;2024-03-22T13:20:01;19.60;63.70
1678;DHT22;6034;46.864;15.216;2024-03-22T13:22:33;19.50;63.50
1678;DHT22;6034;46.864;15.216;2024-03-22T13:25:00;19.50;63.40
1678;DHT22;6034;46.864;15.216;2024-03-22T13:27:27;19.60;65.20
1678;DHT22;6034;46.864;15.216;2024-03-22T13:29:54;19.60;64.00
1678;DHT22;6034;46.864;15.216;2024-03-22T13:32:22;19.60;63.70
1678;DHT22;6034;46.864;15.216;2024-03-22T13:34:49;19.60;61.90
1678;DHT22;6034;46.864;15.216;2024-03-22T13:37:16;19.60;64.10
1678;DHT22;6034;46.864;15.216;2024-03-22T13:39:48;19.70;68.20
1678;DHT22;6034;46.864;15.216;2024-03-22T13:42:15;19.50;66.20
1678;DHT22;6034;46.864;15.216;2024-03-22T13:44:42;18.90;60.60
1678;DHT22;6034;46.864;15.216;2024-03-22T13:47:09;18.90;60.90
1678;DHT22;6034;46.864;15.216;2024-03-22T13:49:38;19.20;61.50
1678;DHT22;6034;46.864;15.216;2024-03-22T13:52:07;19.10;62.20
1678;DHT22;6034;46.864;15.216;2024-03-22T13:54:34;19.20;62.70
1678;DHT22;6034;46.864;15.216;2024-03-22T13:57:01;19.20;63.60
1678;DHT22;6034;46.864;15.216;2024-03-22T13:59:29;19.20;62.80
1678;DHT22;6034;46.864;15.216;2024-03-22T14:01:55;19.30;65.00
1678;DHT22;6034;46.864;15.216;2024-03-22T14:04:23;19.30;63.40
1678;DHT22;6034;46.864;15.216;2024-03-22T14:06:52;19.30;63.70
1678;DHT22;6034;46.864;15.216;2024-03-22T14:09:20;19.30;62.80
1678;DHT22;6034;46.864;15.216;2024-03-22T14:11:46;19.30;63.60
1678;DHT22;6034;46.864;15.216;2024-03-22T14:14:14;19.30;63.20
1678;DHT22;6034;46.864;15.216;2024-03-22T14:16:41;19.30;63.60
1678;DHT22;6034;46.864;15.216;2024-03-22T14:19:09;19.30;63.00
1678;DHT22;6034;46.864;15.216;2024-03-22T14:21:35;19.30;63.10
1678;DHT22;6034;46.864;15.216;2024-03-22T14:24:06;19.40;63.80
1678;DHT22;6034;46.864;15.216;2024-03-22T14:26:33;19.20;62.10
1678;DHT22;6034;46.864;15.216;2024-03-22T14:29:00;19.10;61.60
1678;DHT22;6034;46.864;15.216;2024-03-22T14:31:27;19.00;62.80
1678;DHT22;6034;46.864;15.216;2024-03-22T14:33:54;19.00;62.50
1678;DHT22;6034;46.864;15.216;2024-03-22T14:36:21;19.00;64.30
1678;DHT22;6034;46.864;15.216;2024-03-22T14:38:48;19.10;63.10
1678;DHT22;6034;46.864;15.216;2024-03-22T14:41:16;19.00;62.10
1678;DHT22;6034;46.864;15.216;2024-03-22T14:43:44;19.00;62.70
1678;DHT22;6034;46.864;15.216;2024-03-22T14:46:10;18.80;58.60
1678;DHT22;6034;46.864;15.216;2024-03-22T14:48:38;18.90;63.60
1678;DHT22;6034;46.864;15.216;2024-03-22T14:51:04;18.90;60.00
1678;DHT22;6034;46.864;15.216;2024-03-22T14:53:32;18.90;62.90
1678;DHT22;6034;46.864;15.216;2024-03-22T14:55:59;18.90;61.90
1678;DHT22;6034;46.864;15.216;2024-03-22T14:58:31;18.80;60.90
1678;DHT22;6034;46.864;15.216;2024-03-22T15:00:59;18.80;61.60
1678;DHT22;6034;46.864;15.216;2024-03-22T15:03:27;18.80;62.80
1678;DHT22;6034;46.864;15.216;2024-03-22T15:05:53;18.70;62.10
1678;DHT22;6034;46.864;15.216;2024-03-22T15:08:21;18.60;61.30
1678;DHT22;6034;46.864;15.216;2024-03-22T15:10:48;18.60;61.90
1678;DHT22;6034;46.864;15.216;2024-03-22T15:13:16;18.60;63.10
1678;DHT22;6034;46.864;15.216;2024-03-22T15:15:52;18.50;64.60
1678;DHT22;6034;46.864;15.216;2024-03-22T15:18:19;18.60;64.10
1678;DHT22;6034;46.864;15.216;2024-03-22T15:20:46;18.60;65.10
1678;DHT22;6034;46.864;15.216;2024-03-22T15:23:14;18.60;64.20
1678;DHT22;6034;46.864;15.216;2024-03-22T15:25:40;18.50;63.90
1678;DHT22;6034;46.864;15.216;2024-03-22T15:28:08;18.50;63.70
1678;DHT22;6034;46.864;15.216;2024-03-22T15:30:35;18.50;63.30
1678;DHT22;6034;46.864;15.216;2024-03-22T15:33:04;18.60;64.20
1678;DHT22;6034;46.864;15.216;2024-03-22T15:35:30;18.50;65.40
1678;DHT22;6034;46.864;15.216;2024-03-22T15:37:58;18.50;64.40
1678;DHT22;6034;46.864;15.216;2024-03-22T15:40:24;18.40;63.60
1678;DHT22;6034;46.864;15.216;2024-03-22T15:42:52;18.40;64.80
1678;DHT22;6034;46.864;15.216;2024-03-22T15:45:18;18.40;66.20
1678;DHT22;6034;46.864;15.216;2024-03-22T15:47:46;18.40;65.60
1678;DHT22;6034;46.864;15.216;2024-03-22T15:50:13;18.20;64.80
1678;DHT22;6034;46.864;15.216;2024-03-22T15:52:41;18.30;66.20
1678;DHT22;6034;46.864;15.216;2024-03-22T15:55:08;18.30;66.30
1678;DHT22;6034;46.864;15.216;2024-03-22T15:57:35;18.30;65.90
1678;DHT22;6034;46.864;15.216;2024-03-22T16:00:02;18.30;67.30
1678;DHT22;6034;46.864;15.216;2024-03-22T16:02:30;18.10;67.70
1678;DHT22;6034;46.864;15.216;2024-03-22T16:04:56;18.10;68.10
1678;DHT22;6034;46.864;15.216;2024-03-22T16:07:25;18.00;66.80
1678;DHT22;6034;46.864;15.216;2024-03-22T16:09:51;18.00;66.40
1678;DHT22;6034;46.864;15.216;2024-03-22T16:12:18;17.90;65.40
1678;DHT22;6034;46.864;15.216;2024-03-22T16:14:45;17.70;65.50
1678;DHT22;6034;46.864;15.216;2024-03-22T16:17:12;17.70;66.10
1678;DHT22;6034;46.864;15.216;2024-03-22T16:19:39;17.70;66.10
1678;DHT22;6034;46.864;15.216;2024-03-22T16:22:07;17.70;67.20
1678;DHT22;6034;46.864;15.216;2024-03-22T16:24:35;17.70;67.40
1678;DHT22;6034;46.864;15.216;2024-03-22T16:27:03;17.60;67.50
1678;DHT22;6034;46.864;15.216;2024-03-22T16:29:29;17.50;66.90
1678;DHT22;6034;46.864;15.216;2024-03-22T16:31:57;17.50;68.40
1678;DHT22;6034;46.864;15.216;2024-03-22T16:34:24;17.40;67.50
1678;DHT22;6034;46.864;15.216;2024-03-22T16:36:51;17.40;67.90
1678;DHT22;6034;46.864;15.216;2024-03-22T16:39:20;17.30;68.40
1678;DHT22;6034;46.864;15.216;2024-03-22T16:41:49;17.30;68.30
1678;DHT22;6034;46.864;15.216;2024-03-22T16:44:16;17.30;68.30
1678;DHT22;6034;46.864;15.216;2024-03-22T16:46:43;17.20;67.80
1678;DHT22;6034;46.864;15.216;2024-03-22T16:49:10;17.20;68.40
1678;DHT22;6034;46.864;15.216;2024-03-22T16:51:37;17.20;68.90
1678;DHT22;6034;46.864;15.216;2024-03-22T16:54:04;17.10;67.60
1678;DHT22;6034;46.864;15.216;2024-03-22T16:56:34;17.00;67.90
1678;DHT22;6034;46.864;15.216;2024-03-22T16:59:02;17.10;68.00
1678;DHT22;6034;46.864;15.216;2024-03-22T17:01:29;17.10;68.80
1678;DHT22;6034;46.864;15.216;2024-03-22T17:03:55;17.00;68.10
1678;DHT22;6034;46.864;15.216;2024-03-22T17:06:23;16.90;68.30
1678;DHT22;6034;46.864;15.216;2024-03-22T17:08:49;16.80;68.70
1678;DHT22;6034;46.864;15.216;2024-03-22T17:11:17;16.80;69.10
1678;DHT22;6034;46.864;15.216;2024-03-22T17:13:43;16.80;70.10
1678;DHT22;6034;46.864;15.216;2024-03-22T17:16:12;16.70;69.70
1678;DHT22;6034;46.864;15.216;2024-03-22T17:18:38;16.60;70.20
1678;DHT22;6034;46.864;15.216;2024-03-22T17:21:05;16.60;70.70
1678;DHT22;6034;46.864;15.216;2024-03-22T17:23:32;16.50;69.80
1678;DHT22;6034;46.864;15.216;2024-03-22T17:26:00;16.60;70.60
1678;DHT22;6034;46.864;15.216;2024-03-22T17:28:27;16.50;69.20
1678;DHT22;6034;46.864;15.216;2024-03-22T17:30:55;16.50;70.00
1678;DHT22;6034;46.864;15.216;2024-03-22T17:33:23;16.40;68.90
1678;DHT22;6034;46.864;15.216;2024-03-22T17:35:50;16.40;69.50
1678;DHT22;6034;46.864;15.216;2024-03-22T17:38:17;16.40;69.30
1678;DHT22;6034;46.864;15.216;2024-03-22T17:40:44;16.30;69.90
1678;DHT22;6034;46.864;15.216;2024-03-22T17:43:10;16.30;70.30
1678;DHT22;6034;46.864;15.216;2024-03-22T17:45:40;16.30;70.50
1678;DHT22;6034;46.864;15.216;2024-03-22T17:48:07;16.20;70.70
1678;DHT22;6034;46.864;15.216;2024-03-22T17:50:36;16.20;70.50
1678;DHT22;6034;46.864;15.216;2024-03-22T17:53:02;16.20;70.00
1678;DHT22;6034;46.864;15.216;2024-03-22T17:55:30;16.20;69.90
1678;DHT22;6034;46.864;15.216;2024-03-22T17:57:56;16.10;70.40
1678;DHT22;6034;46.864;15.216;2024-03-22T18:00:23;16.00;70.00
1678;DHT22;6034;46.864;15.216;2024-03-22T18:02:50;16.00;71.60
1678;DHT22;6034;46.864;15.216;2024-03-22T18:05:17;15.90;71.60
1678;DHT22;6034;46.864;15.216;2024-03-22T18:07:45;15.90;72.00
1678;DHT22;6034;46.864;15.216;2024-03-22T18:10:12;15.80;72.50
1678;DHT22;6034;46.864;15.216;2024-03-22T18:12:39;15.70;72.60
1678;DHT22;6034;46.864;15.216;2024-03-22T18:15:07;15.60;72.50
1678;DHT22;6034;46.864;15.216;2024-03-22T18:17:34;15.60;72.50
1678;DHT22;6034;46.864;15.216;2024-03-22T18:20:04;15.40;70.90
1678;DHT22;6034;46.864;15.216;2024-03-22T18:22:32;15.50;72.40
1678;DHT22;6034;46.864;15.216;2024-03-22T18:25:00;15.50;72.40
1678;DHT22;6034;46.864;15.216;2024-03-22T18:27:27;15.40;72.40
1678;DHT22;6034;46.864;15.216;2024-03-22T18:29:54;15.40;72.20
1678;DHT22;6034;46.864;15.216;2024-03-22T18:32:20;15.40;72.30
1678;DHT22;6034;46.864;15.216;2024-03-22T18:34:48;15.40;72.50
1678;DHT22;6034;46.864;15.216;2024-03-22T18:37:14;15.30;72.20
1678;DHT22;6034;46.864;15.216;2024-03-22T18:39:42;15.30;71.60
1678;DHT22;6034;46.864;15.216;2024-03-22T18:42:09;15.30;72.90
1678;DHT22;6034;46.864;15.216;2024-03-22T18:44:37;15.30;73.50
1678;DHT22;6034;46.864;15.216;2024-03-22T18:47:06;15.20;73.80
1678;DHT22;6034;46.864;15.216;2024-03-22T18:49:34;15.20;73.80
1678;DHT22;6034;46.864;15.216;2024-03-22T18:52:01;15.20;73.80
1678;DHT22;6034;46.864;15.216;2024-03-22T18:54:31;15.10;73.60
1678;DHT22;6034;46.864;15.216;2024-03-22T18:56:57;15.10;73.60
1678;DHT22;6034;46.864;15.216;2024-03-22T18:59:27;15.00;72.90
1678;DHT22;6034;46.864;15.216;2024-03-22T19:01:53;15.00;73.20
1678;DHT22;6034;46.864;15.216;2024-03-22T19:04:21;15.00;73.80
1678;DHT22;6034;46.864;15.216;2024-03-22T19:06:48;15.00;74.00
1678;DHT22;6034;46.864;15.216;2024-03-22T19:09:16;14.90;73.70
1678;DHT22;6034;46.864;15.216;2024-03-22T19:11:42;14.90;74.50
1678;DHT22;6034;46.864;15.216;2024-03-22T19:14:10;14.90;74.20
1678;DHT22;6034;46.864;15.216;2024-03-22T19:16:38;14.90;74.30
1678;DHT22;6034;46.864;15.216;2024-03-22T19:19:06;14.90;75.00
1678;DHT22;6034;46.864;15.216;2024-03-22T19:21:33;14.90;75.40
1678;DHT22;6034;46.864;15.216;2024-03-22T19:24:00;14.80;74.60
1678;DHT22;6034;46.864;15.216;2024-03-22T19:26:27;14.70;75.90
1678;DHT22;6034;46.864;15.216;2024-03-22T19:28:54;14.70;75.30
1678;DHT22;6034;46.864;15.216;2024-03-22T19:31:20;14.80;76.20
1678;DHT22;6034;46.864;15.216;2024-03-22T19:33:49;14.70;75.50
1678;DHT22;6034;46.864;15.216;2024-03-22T19:36:16;14.70;75.40
1678;DHT22;6034;46.864;15.216;2024-03-22T19:38:44;14.70;76.10
1678;DHT22;6034;46.864;15.216;2024-03-22T19:41:10;14.80;77.20
1678;DHT22;6034;46.864;15.216;2024-03-22T19:43:37;14.50;74.10
1678;DHT22;6034;46.864;15.216;2024-03-22T19:46:04;14.40;74.30
1678;DHT22;6034;46.864;15.216;2024-03-22T19:48:32;14.30;73.90
1678;DHT22;6034;46.864;15.216;2024-03-22T19:51:01;14.40;74.80
1678;DHT22;6034;46.864;15.216;2024-03-22T19:53:32;14.40;74.60
1678;DHT22;6034;46.864;15.216;2024-03-22T19:55:58;14.30;74.70
1678;DHT22;6034;46.864;15.216;2024-03-22T19:58:26;14.20;74.70
1678;DHT22;6034;46.864;15.216;2024-03-22T20:00:57;14.20;75.50
1678;DHT22;6034;46.864;15.216;2024-03-22T20:03:25;14.00;75.20
1678;DHT22;6034;46.864;15.216;2024-03-22T20:05:51;14.20;75.70
1678;DHT22;6034;46.864;15.216;2024-03-22T20:08:20;14.20;75.70
1678;DHT22;6034;46.864;15.216;2024-03-22T20:10:47;14.20;76.50
1678;DHT22;6034;46.864;15.216;2024-03-22T20:13:15;13.90;75.30
1678;DHT22;6034;46.864;15.216;2024-03-22T20:15:41;13.90;75.70
1678;DHT22;6034;46.864;15.216;2024-03-22T20:18:09;14.00;75.70
1678;DHT22;6034;46.864;15.216;2024-03-22T20:20:36;14.00;75.10
1678;DHT22;6034;46.864;15.216;2024-03-22T20:23:04;14.10;74.50
1678;DHT22;6034;46.864;15.216;2024-03-22T20:25:33;14.10;74.60
1678;DHT22;6034;46.864;15.216;2024-03-22T20:28:02;14.20;74.90
1678;DHT22;6034;46.864;15.216;2024-03-22T20:30:30;14.20;74.70
1678;DHT22;6034;46.864;15.216;2024-03-22T20:32:58;13.90;74.40
